< < Back
Terminal Aerodrome Forecast


Current Version              Previous Versions:   1  2  3  4  5  6  7  8  9  

Terminal Aerodrome Forecast

096
FTUS42 KJAX 302341
TAFJAX
TAF
KJAX 302341Z 3100/3124 23004KT P6SM FEW040 SCT250
     FM311000 24005KT 6SM BR SCT006
     FM311200 24007KT P6SM SCT030
     FM312000 20007KT P6SM VCTS BKN040CB=

Latest METAR

479
SAUS80 KWBC 310300
MTRJAX
METAR KJAX 310256Z 00000KT 10SM FEW150 FEW250 24/23 A2996 RMK AO2 SLP146
T02440233 51017


USA.gov is the U.S. government's official web portal to all federal, state and local government web resources and services.